createdAt,value
2023-04-17T00:01:23.756Z,14.13
2023-04-17T00:03:52.836Z,13.67
2023-04-17T00:06:19.645Z,13.70
2023-04-17T00:08:46.286Z,15.47
2023-04-17T00:11:12.993Z,16.43
2023-04-17T00:13:39.683Z,13.40
2023-04-17T00:16:06.909Z,14.50
2023-04-17T00:18:33.582Z,16.47
2023-04-17T00:21:00.303Z,16.43
2023-04-17T00:23:26.924Z,12.40
2023-04-17T00:25:53.800Z,14.60
2023-04-17T00:28:20.727Z,14.13
2023-04-17T00:30:47.393Z,15.73
2023-04-17T00:33:14.039Z,12.90
2023-04-17T00:35:40.799Z,13.57
2023-04-17T00:38:09.216Z,14.70
2023-04-17T00:40:36.494Z,14.97
2023-04-17T00:43:04.217Z,13.13
2023-04-17T00:45:31.286Z,14.13
2023-04-17T00:47:59.246Z,13.37
2023-04-17T00:50:27.710Z,12.37
2023-04-17T00:52:54.721Z,16.40
2023-04-17T00:55:21.645Z,19.90
2023-04-17T00:57:51.296Z,16.73
2023-04-17T01:00:18.537Z,17.07
2023-04-17T01:02:46.685Z,15.53
2023-04-17T01:05:13.596Z,13.87
2023-04-17T01:07:41.320Z,13.53
2023-04-17T01:10:08.751Z,16.30
2023-04-17T01:12:35.939Z,18.93
2023-04-17T01:15:02.612Z,15.77
2023-04-17T01:17:29.438Z,20.93
2023-04-17T01:19:57.430Z,17.37
2023-04-17T01:22:24.107Z,12.83
2023-04-17T01:24:50.962Z,16.03
2023-04-17T01:27:17.720Z,16.70
2023-04-17T01:29:44.726Z,19.83
2023-04-17T01:32:11.435Z,16.47
2023-04-17T01:34:38.085Z,18.97
2023-04-17T01:37:04.951Z,18.53
2023-04-17T01:39:31.666Z,20.43
2023-04-17T01:41:58.300Z,17.83
2023-04-17T01:44:24.996Z,17.77
2023-04-17T01:46:51.837Z,16.50
2023-04-17T01:49:18.534Z,16.97
2023-04-17T01:51:45.212Z,17.97
2023-04-17T01:54:11.837Z,18.10
2023-04-17T01:56:38.533Z,16.20
2023-04-17T01:59:05.162Z,15.43
2023-04-17T02:01:31.884Z,17.33
2023-04-17T02:03:58.703Z,18.93
2023-04-17T02:06:27.395Z,17.23
2023-04-17T02:08:54.210Z,19.17
2023-04-17T02:11:21.026Z,20.90
2023-04-17T02:13:47.728Z,18.87
2023-04-17T02:16:14.527Z,21.63
2023-04-17T02:18:41.409Z,20.97
2023-04-17T02:21:09.727Z,17.60
2023-04-17T02:23:36.641Z,18.73
2023-04-17T02:26:03.322Z,21.00
2023-04-17T02:28:30.096Z,18.60
2023-04-17T02:30:56.978Z,19.47
2023-04-17T02:33:23.710Z,19.60
2023-04-17T02:35:50.562Z,17.93
2023-04-17T02:38:17.516Z,20.00
2023-04-17T02:40:45.673Z,18.60
2023-04-17T02:43:14.094Z,20.40
2023-04-17T02:45:40.868Z,21.60
2023-04-17T02:48:07.552Z,20.07
2023-04-17T02:50:34.167Z,17.67
2023-04-17T02:53:00.990Z,18.50
2023-04-17T02:55:27.692Z,17.17
2023-04-17T02:57:54.317Z,20.73
2023-04-17T03:00:21.376Z,18.30
2023-04-17T03:02:48.253Z,20.80
2023-04-17T03:05:16.000Z,18.63
2023-04-17T03:07:42.715Z,17.93
2023-04-17T03:10:09.708Z,19.87
2023-04-17T03:12:36.343Z,20.97
2023-04-17T03:15:03.048Z,23.37
2023-04-17T03:17:29.714Z,19.33
2023-04-17T03:19:56.527Z,20.63
2023-04-17T03:22:23.143Z,21.47
2023-04-17T03:24:49.742Z,18.20
2023-04-17T03:27:16.374Z,21.53
2023-04-17T03:29:42.972Z,22.07
2023-04-17T03:32:09.704Z,21.63
2023-04-17T03:34:36.375Z,23.13
2023-04-17T03:37:03.021Z,22.33
2023-04-17T03:39:29.593Z,24.50
2023-04-17T03:41:56.366Z,21.57
2023-04-17T03:44:22.992Z,22.77
2023-04-17T03:46:50.624Z,24.20
2023-04-17T03:49:17.245Z,24.87
2023-04-17T03:51:43.944Z,24.87
2023-04-17T03:54:10.574Z,27.27
2023-04-17T03:56:37.408Z,31.70
2023-04-17T03:59:07.059Z,24.90
2023-04-17T04:01:34.274Z,24.13
2023-04-17T04:04:01.818Z,25.67
2023-04-17T04:06:29.757Z,25.87
2023-04-17T04:08:57.142Z,25.93
2023-04-17T04:11:23.770Z,27.93
2023-04-17T04:13:50.432Z,24.80
2023-04-17T04:16:17.156Z,24.00
2023-04-17T04:18:43.799Z,25.37
2023-04-17T04:21:12.337Z,25.20
2023-04-17T04:23:41.273Z,24.13
2023-04-17T04:26:08.090Z,25.90
2023-04-17T04:28:34.737Z,31.97
2023-04-17T04:31:02.766Z,26.07
2023-04-17T04:33:29.936Z,32.07
2023-04-17T04:36:01.805Z,26.80
2023-04-17T04:38:32.872Z,28.87
2023-04-17T04:41:01.592Z,38.63
2023-04-17T04:43:29.112Z,33.43
2023-04-17T04:45:56.108Z,37.97
2023-04-17T04:48:22.917Z,41.33
2023-04-17T04:50:49.812Z,37.47
2023-04-17T04:53:16.638Z,33.27
2023-04-17T04:55:43.356Z,35.57
2023-04-17T04:58:10.044Z,41.63
2023-04-17T05:00:37.115Z,36.63
2023-04-17T05:03:04.014Z,32.57
2023-04-17T05:05:31.014Z,37.13
2023-04-17T05:07:57.704Z,38.90
2023-04-17T05:10:24.513Z,36.17
2023-04-17T05:12:51.201Z,37.20
2023-04-17T05:15:17.942Z,38.00
2023-04-17T05:17:44.942Z,41.70
2023-04-17T05:20:15.080Z,33.77
2023-04-17T05:22:42.074Z,34.97
2023-04-17T05:25:08.890Z,38.40
2023-04-17T05:27:35.615Z,37.60
2023-04-17T05:30:02.384Z,36.83
2023-04-17T05:32:31.276Z,34.60
2023-04-17T05:34:58.123Z,33.83
2023-04-17T05:37:24.930Z,37.10
2023-04-17T05:39:51.649Z,33.07
2023-04-17T05:42:18.454Z,35.40
2023-04-17T05:44:45.990Z,35.83
2023-04-17T05:47:12.875Z,34.43
2023-04-17T05:49:39.664Z,32.57
2023-04-17T05:52:07.997Z,34.57
2023-04-17T05:54:34.703Z,36.67
2023-04-17T05:57:02.386Z,37.20
2023-04-17T05:59:31.410Z,32.13
2023-04-17T06:01:59.589Z,35.40
2023-04-17T06:04:26.729Z,33.77
2023-04-17T06:06:53.773Z,39.30
2023-04-17T06:09:22.034Z,30.33
2023-04-17T06:11:49.774Z,29.17
2023-04-17T06:14:16.783Z,31.50
2023-04-17T06:16:43.744Z,29.33
2023-04-17T06:19:11.430Z,29.37
2023-04-17T06:21:38.403Z,27.83
2023-04-17T06:24:05.431Z,28.20
2023-04-17T06:26:32.221Z,27.83
2023-04-17T06:28:58.923Z,23.47
2023-04-17T06:31:25.655Z,22.80
2023-04-17T06:33:52.441Z,24.27
2023-04-17T06:36:19.088Z,22.02
2023-04-17T06:38:47.289Z,23.05
2023-04-17T06:41:14.568Z,21.77
2023-04-17T06:43:41.305Z,23.33
2023-04-17T06:46:08.155Z,20.83
2023-04-17T06:48:34.928Z,23.38
2023-04-17T06:51:02.835Z,23.87
2023-04-17T06:53:29.641Z,21.13
2023-04-17T06:55:56.341Z,22.50
2023-04-17T06:58:23.103Z,23.13
2023-04-17T07:00:49.824Z,22.77
2023-04-17T07:03:16.738Z,22.60
2023-04-17T07:05:44.354Z,25.70
2023-04-17T07:08:11.114Z,27.33
2023-04-17T07:10:37.813Z,26.00
2023-04-17T07:13:04.604Z,25.20
2023-04-17T07:15:31.573Z,24.37
2023-04-17T07:17:58.391Z,25.77
2023-04-17T07:20:25.347Z,22.77
2023-04-17T07:22:52.074Z,23.07
2023-04-17T07:25:20.034Z,25.33
2023-04-17T07:27:46.783Z,24.87
2023-04-17T07:30:13.581Z,24.00
2023-04-17T07:32:40.423Z,27.57
2023-04-17T07:35:07.770Z,25.73
2023-04-17T07:37:34.807Z,24.40
2023-04-17T07:40:01.508Z,24.33
2023-04-17T07:42:29.282Z,19.97
2023-04-17T07:44:57.566Z,21.93
2023-04-17T07:47:24.406Z,23.30
2023-04-17T07:49:51.495Z,23.83
2023-04-17T07:52:18.321Z,19.90
2023-04-17T07:54:45.658Z,24.47
2023-04-17T07:57:12.410Z,21.83
2023-04-17T07:59:39.116Z,25.20
2023-04-17T08:02:06.039Z,22.27
2023-04-17T08:04:33.477Z,27.40
2023-04-17T08:07:00.279Z,20.57
2023-04-17T08:09:26.899Z,21.20
2023-04-17T08:11:57.414Z,19.70
2023-04-17T08:14:25.032Z,22.10
2023-04-17T08:16:51.888Z,24.80
2023-04-17T08:19:18.716Z,24.03
2023-04-17T08:21:47.718Z,26.37
2023-04-17T08:24:14.457Z,21.73
2023-04-17T08:26:41.541Z,20.80
2023-04-17T08:29:08.199Z,20.67
2023-04-17T08:31:39.870Z,23.20
2023-04-17T08:34:14.554Z,23.50
2023-04-17T08:36:42.754Z,24.73
2023-04-17T08:39:11.197Z,22.90
2023-04-17T08:41:51.096Z,23.20
2023-04-17T08:44:20.601Z,19.85
2023-04-17T08:46:47.651Z,22.15
2023-04-17T08:49:14.975Z,19.13
2023-04-17T08:51:42.257Z,20.50
2023-04-17T08:54:10.243Z,19.83
2023-04-17T08:56:36.885Z,23.02
2023-04-17T08:59:04.574Z,19.90
2023-04-17T09:01:31.305Z,21.27
2023-04-17T09:03:58.279Z,22.25
2023-04-17T09:06:25.039Z,21.88
2023-04-17T09:09:00.418Z,20.98
2023-04-17T09:11:27.566Z,23.63
2023-04-17T09:13:54.502Z,19.52
2023-04-17T09:16:21.250Z,19.33
2023-04-17T09:18:48.144Z,22.15
2023-04-17T09:21:19.143Z,23.02
2023-04-17T09:23:51.252Z,19.63
2023-04-17T09:26:24.149Z,21.75
2023-04-17T09:29:00.984Z,18.27
2023-04-17T09:31:30.477Z,24.75
2023-04-17T09:34:02.597Z,20.95
2023-04-17T09:36:31.267Z,18.05
2023-04-17T09:39:04.488Z,21.85
2023-04-17T09:41:32.044Z,21.98
2023-04-17T09:44:02.029Z,19.23
2023-04-17T09:46:38.170Z,20.20
2023-04-17T09:49:18.878Z,19.35
2023-04-17T09:51:46.466Z,20.98
2023-04-17T09:54:15.047Z,17.50
2023-04-17T09:56:42.281Z,16.92
2023-04-17T09:59:09.877Z,26.30
2023-04-17T10:01:37.913Z,20.50
2023-04-17T10:04:05.523Z,19.73
2023-04-17T10:06:32.855Z,21.58
2023-04-17T10:08:59.646Z,20.55
2023-04-17T10:11:30.169Z,19.17
2023-04-17T10:14:10.674Z,21.17
2023-04-17T10:16:39.244Z,21.10
2023-04-17T10:19:29.793Z,18.63
2023-04-17T10:22:18.008Z,25.75
2023-04-17T10:24:45.695Z,21.42
2023-04-17T10:27:24.552Z,19.55
2023-04-17T10:29:59.235Z,30.73
2023-04-17T10:32:29.077Z,19.60
2023-04-17T10:35:00.973Z,20.67
2023-04-17T10:37:52.567Z,20.45
2023-04-17T10:40:24.060Z,18.88
2023-04-17T10:43:22.858Z,19.20
2023-04-17T10:46:12.997Z,20.88
2023-04-17T10:48:52.913Z,18.85
2023-04-17T10:51:29.119Z,18.60
2023-04-17T10:53:57.848Z,18.52
2023-04-17T10:56:27.151Z,18.00
2023-04-17T10:59:18.416Z,17.65
2023-04-17T11:01:48.254Z,16.25
2023-04-17T11:04:23.741Z,18.85
2023-04-17T11:06:55.487Z,19.13
2023-04-17T11:09:23.853Z,18.73
2023-04-17T11:11:50.618Z,16.42
2023-04-17T11:14:19.149Z,17.67
2023-04-17T11:16:47.484Z,16.43
2023-04-17T11:19:19.225Z,17.20
2023-04-17T11:21:48.176Z,16.10
2023-04-17T11:24:25.287Z,17.15
2023-04-17T11:26:52.095Z,19.52
2023-04-17T11:29:20.499Z,18.40
2023-04-17T11:31:48.305Z,14.95
2023-04-17T11:34:18.426Z,14.52
2023-04-17T11:36:52.744Z,14.20
2023-04-17T11:39:21.264Z,15.07
2023-04-17T11:41:48.049Z,13.18
2023-04-17T11:44:16.879Z,16.10
2023-04-17T11:46:43.586Z,17.10
2023-04-17T11:49:11.703Z,14.00
2023-04-17T11:51:38.578Z,15.65
2023-04-17T11:54:05.465Z,12.70
2023-04-17T11:56:32.171Z,15.25
2023-04-17T11:59:00.205Z,16.00
2023-04-17T12:01:28.235Z,12.50
2023-04-17T12:03:57.126Z,15.48
2023-04-17T12:06:26.749Z,13.93
2023-04-17T12:08:54.834Z,15.18
2023-04-17T12:11:31.123Z,15.50
2023-04-17T12:13:57.818Z,12.38
2023-04-17T12:16:25.632Z,14.30
2023-04-17T12:18:52.828Z,13.48
2023-04-17T12:21:20.621Z,14.83
2023-04-17T12:23:47.720Z,11.65
2023-04-17T12:26:14.495Z,11.33
2023-04-17T12:28:41.160Z,13.00
2023-04-17T12:31:07.827Z,13.73
2023-04-17T12:33:34.724Z,10.80
2023-04-17T12:36:02.652Z,12.50
2023-04-17T12:38:29.814Z,12.10
2023-04-17T12:40:56.554Z,11.47
2023-04-17T12:43:23.212Z,12.47
2023-04-17T12:45:50.348Z,11.23
2023-04-17T12:48:17.105Z,11.67
2023-04-17T12:50:44.325Z,13.50
2023-04-17T12:53:13.309Z,10.50
2023-04-17T12:55:43.893Z,10.15
2023-04-17T12:58:12.176Z,10.00
2023-04-17T13:00:44.042Z,10.77
2023-04-17T13:03:12.107Z,10.73
2023-04-17T13:05:39.623Z,7.63
2023-04-17T13:08:06.453Z,7.85
2023-04-17T13:10:34.293Z,8.97
2023-04-17T13:13:03.541Z,8.37
2023-04-17T13:15:30.409Z,7.43
2023-04-17T13:17:57.222Z,7.38
2023-04-17T13:20:23.859Z,7.93
2023-04-17T13:22:50.569Z,7.10
2023-04-17T13:25:17.225Z,8.17
2023-04-17T13:27:43.885Z,7.68
2023-04-17T13:30:10.924Z,7.10
2023-04-17T13:32:37.723Z,7.07
2023-04-17T13:35:05.289Z,8.18
2023-04-17T13:37:32.088Z,6.80
2023-04-17T13:39:59.748Z,7.23
2023-04-17T13:42:26.793Z,6.17
2023-04-17T13:44:53.390Z,5.80
2023-04-17T13:47:20.080Z,6.37
2023-04-17T13:49:46.885Z,7.07
2023-04-17T13:52:13.653Z,6.77
2023-04-17T13:54:43.308Z,7.00
2023-04-17T13:57:10.570Z,9.13
2023-04-17T13:59:37.164Z,8.40
2023-04-17T14:02:04.237Z,11.47
2023-04-17T14:04:31.673Z,8.50
2023-04-17T14:06:59.328Z,9.43
2023-04-17T14:09:26.024Z,8.67
2023-04-17T14:11:52.750Z,8.40
2023-04-17T14:14:19.364Z,9.70
2023-04-17T14:16:50.883Z,10.70
2023-04-17T14:19:17.981Z,7.63
2023-04-17T14:21:44.900Z,11.10
2023-04-17T14:24:11.611Z,9.47
2023-04-17T14:26:38.671Z,7.10
2023-04-17T14:29:05.353Z,9.67
2023-04-17T14:31:32.404Z,10.70
2023-04-17T14:33:59.538Z,11.13
2023-04-17T14:36:26.330Z,9.93
2023-04-17T14:38:54.269Z,9.57
2023-04-17T14:41:21.027Z,10.20
2023-04-17T14:43:47.726Z,12.57
2023-04-17T14:46:14.461Z,10.90
2023-04-17T14:48:54.789Z,8.97
2023-04-17T14:51:23.769Z,9.10
2023-04-17T14:53:53.048Z,10.90
2023-04-17T14:56:21.472Z,12.53
2023-04-17T14:58:48.232Z,11.20
2023-04-17T15:01:14.904Z,11.50
2023-04-17T15:03:46.748Z,10.47
2023-04-17T15:06:15.731Z,8.70
2023-04-17T15:08:42.697Z,13.63
2023-04-17T15:11:09.422Z,12.27
2023-04-17T15:13:36.081Z,14.23
2023-04-17T15:16:02.823Z,14.60
2023-04-17T15:18:29.536Z,15.37
2023-04-17T15:20:56.150Z,13.47
2023-04-17T15:23:22.958Z,12.87
2023-04-17T15:25:49.646Z,14.50
2023-04-17T15:28:16.322Z,13.70
2023-04-17T15:30:43.031Z,15.10
2023-04-17T15:33:10.432Z,13.97
2023-04-17T15:35:37.725Z,13.93
2023-04-17T15:38:06.464Z,13.87
2023-04-17T15:40:33.978Z,13.77
2023-04-17T15:43:01.253Z,15.23
2023-04-17T15:45:27.975Z,16.27
2023-04-17T15:47:54.810Z,16.03
2023-04-17T15:50:22.080Z,16.20
2023-04-17T15:52:48.672Z,18.07
2023-04-17T15:55:15.361Z,16.90
2023-04-17T15:57:43.066Z,15.63
2023-04-17T16:00:10.550Z,16.33
2023-04-17T16:02:37.409Z,17.57
2023-04-17T16:05:04.589Z,17.00
2023-04-17T16:07:31.927Z,16.33
2023-04-17T16:09:58.977Z,14.97
2023-04-17T16:12:28.073Z,15.47
2023-04-17T16:14:54.836Z,17.30
2023-04-17T16:17:21.535Z,16.37
2023-04-17T16:19:50.359Z,20.97
2023-04-17T16:22:18.433Z,17.97
2023-04-17T16:24:45.127Z,19.57
2023-04-17T16:27:11.832Z,17.33
2023-04-17T16:29:38.431Z,14.53
2023-04-17T16:32:05.115Z,16.23
2023-04-17T16:34:31.700Z,19.93
2023-04-17T16:36:58.337Z,19.40
2023-04-17T16:39:24.924Z,21.23
2023-04-17T16:41:52.805Z,17.47
2023-04-17T16:44:19.794Z,20.13
2023-04-17T16:47:09.583Z,15.47
2023-04-17T16:49:32.989Z,20.10
2023-04-17T16:51:59.697Z,20.57
2023-04-17T16:54:26.483Z,18.70
2023-04-17T16:56:53.226Z,17.43
2023-04-17T16:59:19.847Z,19.93
2023-04-17T17:01:49.858Z,18.80
2023-04-17T17:04:16.660Z,18.03
2023-04-17T17:06:43.372Z,19.03
2023-04-17T17:09:10.054Z,19.83
2023-04-17T17:11:36.740Z,20.17
2023-04-17T17:14:20.901Z,19.27
2023-04-17T17:16:47.693Z,19.60
2023-04-17T17:19:14.847Z,19.37
2023-04-17T17:21:41.668Z,19.40
2023-04-17T17:24:08.310Z,21.63
2023-04-17T17:26:36.900Z,17.43
2023-04-17T17:29:03.792Z,18.10
2023-04-17T17:31:30.817Z,18.47
2023-04-17T17:34:12.020Z,20.87
2023-04-17T17:36:48.796Z,16.97
2023-04-17T17:39:15.546Z,17.80
2023-04-17T17:41:42.142Z,18.20
2023-04-17T17:44:08.717Z,17.13
2023-04-17T17:46:35.860Z,23.63
2023-04-17T17:49:02.617Z,18.77
2023-04-17T17:51:29.212Z,19.60
2023-04-17T17:53:55.812Z,18.30
2023-04-17T17:56:23.559Z,19.87
2023-04-17T17:58:51.164Z,20.90
2023-04-17T18:01:17.953Z,21.93
2023-04-17T18:03:46.672Z,20.37
2023-04-17T18:06:14.663Z,18.57
2023-04-17T18:08:41.281Z,21.67
2023-04-17T18:11:08.120Z,18.83
2023-04-17T18:13:34.699Z,22.33
2023-04-17T18:16:04.158Z,20.33
2023-04-17T18:18:30.921Z,19.37
2023-04-17T18:20:57.545Z,19.03
2023-04-17T18:23:24.144Z,20.30
2023-04-17T18:25:58.731Z,19.27
2023-04-17T18:28:25.940Z,21.23
2023-04-17T18:30:52.740Z,21.07
2023-04-17T18:33:19.488Z,23.67
2023-04-17T18:35:46.189Z,18.17
2023-04-17T18:38:12.820Z,19.97
2023-04-17T18:40:39.413Z,18.27
2023-04-17T18:43:06.254Z,24.57
2023-04-17T18:45:34.513Z,23.23
2023-04-17T18:48:01.230Z,20.20
2023-04-17T18:50:28.093Z,22.80
2023-04-17T18:52:54.714Z,21.00
2023-04-17T18:55:21.398Z,23.83
2023-04-17T18:57:48.092Z,19.23
2023-04-17T19:00:14.909Z,21.73
2023-04-17T19:02:41.959Z,19.13
2023-04-17T19:05:09.057Z,22.47
2023-04-17T19:07:35.789Z,20.40
2023-04-17T19:10:02.535Z,22.37
2023-04-17T19:12:30.486Z,20.03
2023-04-17T19:14:59.945Z,23.03
2023-04-17T19:17:26.592Z,17.23
2023-04-17T19:19:53.197Z,17.23
2023-04-17T19:22:20.029Z,18.77
2023-04-17T19:24:49.901Z,19.60
2023-04-17T19:27:17.145Z,19.37
2023-04-17T19:29:43.818Z,18.13
2023-04-17T19:32:10.910Z,21.10
2023-04-17T19:34:38.468Z,17.43
2023-04-17T19:37:05.421Z,20.10
2023-04-17T19:39:32.089Z,19.10
2023-04-17T19:41:58.744Z,17.10
2023-04-17T19:44:27.971Z,19.53
2023-04-17T19:46:55.331Z,25.17
2023-04-17T19:49:22.010Z,20.20
2023-04-17T19:51:48.659Z,19.43
2023-04-17T19:54:15.920Z,14.87
2023-04-17T19:56:42.598Z,17.63
2023-04-17T19:59:12.535Z,18.03
2023-04-17T20:01:42.080Z,17.67
2023-04-17T20:04:10.321Z,17.20
2023-04-17T20:06:37.172Z,18.03
2023-04-17T20:09:04.803Z,20.13
2023-04-17T20:11:31.455Z,19.67
2023-04-17T20:13:58.096Z,20.17
2023-04-17T20:16:24.932Z,18.63
2023-04-17T20:18:52.051Z,20.30
2023-04-17T20:21:18.845Z,19.23
2023-04-17T20:23:47.698Z,19.50
2023-04-17T20:26:14.912Z,16.20
2023-04-17T20:28:42.244Z,16.40
2023-04-17T20:31:09.006Z,18.13
2023-04-17T20:33:35.761Z,19.07
2023-04-17T20:36:03.109Z,17.27
2023-04-17T20:38:29.843Z,17.93
2023-04-17T20:40:56.629Z,16.73
2023-04-17T20:43:23.305Z,19.97
2023-04-17T20:45:50.412Z,18.63
2023-04-17T20:48:17.080Z,21.47
2023-04-17T20:50:44.546Z,18.53
2023-04-17T20:53:11.226Z,18.83
2023-04-17T20:55:38.207Z,17.47
2023-04-17T20:58:04.914Z,17.27
2023-04-17T21:00:31.648Z,19.57
2023-04-17T21:02:58.424Z,17.83
2023-04-17T21:05:25.101Z,14.47
2023-04-17T21:07:52.035Z,18.13
2023-04-17T21:10:19.986Z,19.53
2023-04-17T21:12:46.892Z,17.17
2023-04-17T21:15:13.523Z,17.50
2023-04-17T21:17:40.283Z,19.17
2023-04-17T21:20:07.659Z,16.93
2023-04-17T21:22:34.362Z,13.47
2023-04-17T21:25:01.083Z,17.37
2023-04-17T21:27:27.737Z,16.37
2023-04-17T21:29:54.386Z,18.03
2023-04-17T21:32:21.125Z,17.00
2023-04-17T21:34:47.886Z,14.40
2023-04-17T21:37:14.502Z,15.73
2023-04-17T21:39:41.113Z,16.43
2023-04-17T21:42:09.744Z,18.03
2023-04-17T21:44:36.344Z,16.40
2023-04-17T21:47:02.937Z,17.70
2023-04-17T21:49:29.532Z,16.20
2023-04-17T21:51:57.118Z,13.30
2023-04-17T21:54:25.353Z,14.87
2023-04-17T21:56:51.989Z,14.37
2023-04-17T21:59:18.694Z,15.40
2023-04-17T22:01:45.324Z,12.77
2023-04-17T22:04:12.059Z,15.43
2023-04-17T22:06:38.870Z,18.37
2023-04-17T22:09:05.540Z,17.83
2023-04-17T22:11:32.403Z,13.90
2023-04-17T22:13:59.045Z,13.67
2023-04-17T22:16:25.879Z,18.53
2023-04-17T22:18:52.609Z,19.53
2023-04-17T22:21:19.358Z,18.40
2023-04-17T22:23:46.045Z,22.63
2023-04-17T22:26:12.725Z,17.77
2023-04-17T22:28:39.340Z,21.70
2023-04-17T22:31:06.204Z,15.03
2023-04-17T22:33:32.823Z,18.63
2023-04-17T22:35:59.422Z,19.80
2023-04-17T22:38:26.042Z,17.17
2023-04-17T22:40:52.691Z,16.57
2023-04-17T22:43:19.329Z,17.87
2023-04-17T22:45:46.086Z,19.67
2023-04-17T22:48:12.799Z,19.27
2023-04-17T22:50:39.532Z,15.07
2023-04-17T22:53:06.165Z,20.83
2023-04-17T22:55:33.296Z,18.10
2023-04-17T22:58:01.491Z,13.60
2023-04-17T23:00:28.302Z,15.50
2023-04-17T23:02:55.066Z,18.40
2023-04-17T23:05:21.824Z,18.00
2023-04-17T23:07:48.601Z,16.73
2023-04-17T23:10:15.334Z,14.07
2023-04-17T23:12:44.238Z,14.73
2023-04-17T23:15:11.215Z,18.20
2023-04-17T23:17:37.878Z,18.10
2023-04-17T23:20:04.821Z,17.37
2023-04-17T23:22:31.475Z,17.40
2023-04-17T23:24:58.212Z,17.77
2023-04-17T23:27:24.887Z,16.83
2023-04-17T23:29:51.524Z,23.17
2023-04-17T23:32:18.308Z,16.80
2023-04-17T23:34:44.922Z,17.27
2023-04-17T23:37:11.962Z,19.53
2023-04-17T23:39:38.575Z,16.73
2023-04-17T23:42:07.908Z,15.30
2023-04-17T23:44:34.700Z,14.57
2023-04-17T23:47:02.985Z,17.67
2023-04-17T23:49:29.615Z,14.17
2023-04-17T23:51:56.552Z,15.73
2023-04-17T23:54:23.173Z,16.83
2023-04-17T23:56:49.831Z,16.07
2023-04-17T23:59:16.646Z,17.57
